Missoula, Montana
Current Conditions -  °F | °C
As of 12:53 PM on Sunday 23 Nov 2014 (Local Time) from KMSO Reporting Station
Overcast Overcast  
Wind Chill: -1°   Ceiling: 4500
Heat Index:   Visibility: 10mi
Dew Point: -2°   Wind: 8mph
Humidity: 70%   Direction: 140°SE
Pressure: 30.08"   Gusts: NA
Location:  46.87°N, 113.99°W
Report Text: KMSO 231953Z 14007KT 10SM BKN045 OVC055 03/M02 A3008 RMK AO2 SLP208 T00281022
Loading
Personal Weather Stations






























Interactive Weather Map New forecast layout! Learn more

10-Day Weather Forecast

Advertisements
Track Severe Weather on mobile